sensor_id;sensor_type;location;lat;lon;timestamp;pressure;altitude;pressure_sealevel;temperature
29423;BMP180;16399;51.686;8.684;2023-08-24T00:01:30;100144.00;;;17.80
29423;BMP180;16399;51.686;8.684;2023-08-24T00:04:32;100145.00;;;17.70
29423;BMP180;16399;51.686;8.684;2023-08-24T00:07:36;100144.00;;;17.70
29423;BMP180;16399;51.686;8.684;2023-08-24T00:10:38;100145.00;;;17.70
29423;BMP180;16399;51.686;8.684;2023-08-24T00:13:42;100153.00;;;17.70
29423;BMP180;16399;51.686;8.684;2023-08-24T00:16:54;100154.00;;;17.60
29423;BMP180;16399;51.686;8.684;2023-08-24T00:19:57;100154.00;;;17.60
29423;BMP180;16399;51.686;8.684;2023-08-24T00:23:00;100162.00;;;17.60
29423;BMP180;16399;51.686;8.684;2023-08-24T00:26:02;100153.00;;;17.60
29423;BMP180;16399;51.686;8.684;2023-08-24T00:29:04;100143.00;;;17.50
29423;BMP180;16399;51.686;8.684;2023-08-24T00:32:07;100142.00;;;17.50
29423;BMP180;16399;51.686;8.684;2023-08-24T00:35:09;100132.00;;;17.50
29423;BMP180;16399;51.686;8.684;2023-08-24T00:38:11;100129.00;;;17.50
29423;BMP180;16399;51.686;8.684;2023-08-24T00:41:14;100128.00;;;17.50
29423;BMP180;16399;51.686;8.684;2023-08-24T00:44:16;100130.00;;;17.50
29423;BMP180;16399;51.686;8.684;2023-08-24T00:47:18;100133.00;;;17.50
29423;BMP180;16399;51.686;8.684;2023-08-24T00:50:21;100133.00;;;17.50
29423;BMP180;16399;51.686;8.684;2023-08-24T00:53:25;100129.00;;;17.40
29423;BMP180;16399;51.686;8.684;2023-08-24T00:56:28;100120.00;;;17.40
29423;BMP180;16399;51.686;8.684;2023-08-24T00:59:32;100123.00;;;17.40
29423;BMP180;16399;51.686;8.684;2023-08-24T01:02:34;100125.00;;;17.40
29423;BMP180;16399;51.686;8.684;2023-08-24T01:05:36;100125.00;;;17.40
29423;BMP180;16399;51.686;8.684;2023-08-24T01:08:39;100118.00;;;17.40
29423;BMP180;16399;51.686;8.684;2023-08-24T01:15:12;100122.00;;;17.30
29423;BMP180;16399;51.686;8.684;2023-08-24T01:18:15;100108.00;;;17.30
29423;BMP180;16399;51.686;8.684;2023-08-24T01:21:20;100108.00;;;17.20
29423;BMP180;16399;51.686;8.684;2023-08-24T01:24:34;100118.00;;;17.20
29423;BMP180;16399;51.686;8.684;2023-08-24T01:27:32;100112.00;;;17.20
29423;BMP180;16399;51.686;8.684;2023-08-24T01:30:37;100107.00;;;17.20
29423;BMP180;16399;51.686;8.684;2023-08-24T01:33:40;100108.00;;;17.20
29423;BMP180;16399;51.686;8.684;2023-08-24T01:36:43;100102.00;;;17.20
29423;BMP180;16399;51.686;8.684;2023-08-24T01:39:54;100093.00;;;17.10
29423;BMP180;16399;51.686;8.684;2023-08-24T01:43:06;100084.00;;;17.10
29423;BMP180;16399;51.686;8.684;2023-08-24T01:46:11;100095.00;;;17.10
29423;BMP180;16399;51.686;8.684;2023-08-24T01:49:17;100078.00;;;17.10
29423;BMP180;16399;51.686;8.684;2023-08-24T01:52:19;100082.00;;;17.10
29423;BMP180;16399;51.686;8.684;2023-08-24T01:55:22;100086.00;;;17.10
29423;BMP180;16399;51.686;8.684;2023-08-24T01:58:24;100085.00;;;17.10
29423;BMP180;16399;51.686;8.684;2023-08-24T02:01:27;100079.00;;;17.00
29423;BMP180;16399;51.686;8.684;2023-08-24T02:04:29;100078.00;;;17.10
29423;BMP180;16399;51.686;8.684;2023-08-24T02:07:31;100073.00;;;17.00
29423;BMP180;16399;51.686;8.684;2023-08-24T02:10:34;100069.00;;;17.00
29423;BMP180;16399;51.686;8.684;2023-08-24T02:13:36;100081.00;;;17.00
29423;BMP180;16399;51.686;8.684;2023-08-24T02:16:38;100080.00;;;17.10
29423;BMP180;16399;51.686;8.684;2023-08-24T02:19:40;100063.00;;;17.10
29423;BMP180;16399;51.686;8.684;2023-08-24T02:22:43;100063.00;;;17.10
29423;BMP180;16399;51.686;8.684;2023-08-24T02:25:45;100059.00;;;17.00
29423;BMP180;16399;51.686;8.684;2023-08-24T02:28:47;100058.00;;;17.10
29423;BMP180;16399;51.686;8.684;2023-08-24T02:31:51;100063.00;;;17.10
29423;BMP180;16399;51.686;8.684;2023-08-24T02:34:53;100059.00;;;17.00
29423;BMP180;16399;51.686;8.684;2023-08-24T02:37:55;100058.00;;;17.00
29423;BMP180;16399;51.686;8.684;2023-08-24T02:41:03;100049.00;;;17.00
29423;BMP180;16399;51.686;8.684;2023-08-24T02:44:05;100060.00;;;17.00
29423;BMP180;16399;51.686;8.684;2023-08-24T02:47:07;100057.00;;;17.00
29423;BMP180;16399;51.686;8.684;2023-08-24T02:50:10;100057.00;;;16.90
29423;BMP180;16399;51.686;8.684;2023-08-24T02:53:12;100039.00;;;16.90
29423;BMP180;16399;51.686;8.684;2023-08-24T02:56:15;100033.00;;;16.90
29423;BMP180;16399;51.686;8.684;2023-08-24T02:59:17;100028.00;;;16.90
29423;BMP180;16399;51.686;8.684;2023-08-24T03:02:19;100037.00;;;16.90
29423;BMP180;16399;51.686;8.684;2023-08-24T03:05:21;100042.00;;;16.90
29423;BMP180;16399;51.686;8.684;2023-08-24T03:08:25;100033.00;;;16.90
29423;BMP180;16399;51.686;8.684;2023-08-24T03:11:27;100032.00;;;16.90
29423;BMP180;16399;51.686;8.684;2023-08-24T03:14:30;100035.00;;;16.90
29423;BMP180;16399;51.686;8.684;2023-08-24T03:17:32;100039.00;;;16.80
29423;BMP180;16399;51.686;8.684;2023-08-24T03:20:34;100050.00;;;16.80
29423;BMP180;16399;51.686;8.684;2023-08-24T03:23:37;100048.00;;;16.80
29423;BMP180;16399;51.686;8.684;2023-08-24T03:26:39;100055.00;;;16.70
29423;BMP180;16399;51.686;8.684;2023-08-24T03:29:41;100063.00;;;16.70
29423;BMP180;16399;51.686;8.684;2023-08-24T03:32:43;100063.00;;;16.70
29423;BMP180;16399;51.686;8.684;2023-08-24T03:35:46;100057.00;;;16.70
29423;BMP180;16399;51.686;8.684;2023-08-24T03:38:48;100053.00;;;16.70
29423;BMP180;16399;51.686;8.684;2023-08-24T03:41:50;100045.00;;;16.70
29423;BMP180;16399;51.686;8.684;2023-08-24T03:44:53;100052.00;;;16.70
29423;BMP180;16399;51.686;8.684;2023-08-24T03:47:55;100053.00;;;16.70
29423;BMP180;16399;51.686;8.684;2023-08-24T03:50:58;100056.00;;;16.70
29423;BMP180;16399;51.686;8.684;2023-08-24T03:54:00;100054.00;;;16.70
29423;BMP180;16399;51.686;8.684;2023-08-24T03:57:04;100062.00;;;16.70
29423;BMP180;16399;51.686;8.684;2023-08-24T04:00:07;100059.00;;;16.70
29423;BMP180;16399;51.686;8.684;2023-08-24T04:03:10;100055.00;;;16.70
29423;BMP180;16399;51.686;8.684;2023-08-24T04:06:13;100060.00;;;16.60
29423;BMP180;16399;51.686;8.684;2023-08-24T04:09:15;100064.00;;;16.60
29423;BMP180;16399;51.686;8.684;2023-08-24T04:12:17;100063.00;;;16.60
29423;BMP180;16399;51.686;8.684;2023-08-24T04:15:20;100064.00;;;16.50
29423;BMP180;16399;51.686;8.684;2023-08-24T04:18:22;100045.00;;;16.50
29423;BMP180;16399;51.686;8.684;2023-08-24T04:21:24;100047.00;;;16.50
29423;BMP180;16399;51.686;8.684;2023-08-24T04:24:26;100041.00;;;16.60
29423;BMP180;16399;51.686;8.684;2023-08-24T04:27:30;100053.00;;;16.60
29423;BMP180;16399;51.686;8.684;2023-08-24T04:30:32;100070.00;;;16.60
29423;BMP180;16399;51.686;8.684;2023-08-24T04:33:34;100069.00;;;16.60
29423;BMP180;16399;51.686;8.684;2023-08-24T04:36:37;100060.00;;;16.60
29423;BMP180;16399;51.686;8.684;2023-08-24T04:39:39;100053.00;;;16.60
29423;BMP180;16399;51.686;8.684;2023-08-24T04:42:41;100060.00;;;16.70
29423;BMP180;16399;51.686;8.684;2023-08-24T04:45:45;100064.00;;;16.70
29423;BMP180;16399;51.686;8.684;2023-08-24T04:48:48;100063.00;;;16.80
29423;BMP180;16399;51.686;8.684;2023-08-24T04:51:50;100078.00;;;16.90
29423;BMP180;16399;51.686;8.684;2023-08-24T04:54:52;100076.00;;;17.00
29423;BMP180;16399;51.686;8.684;2023-08-24T04:57:54;100083.00;;;17.10
29423;BMP180;16399;51.686;8.684;2023-08-24T05:00:57;100095.00;;;17.20
29423;BMP180;16399;51.686;8.684;2023-08-24T05:03:59;100086.00;;;17.20
29423;BMP180;16399;51.686;8.684;2023-08-24T05:07:01;100088.00;;;17.30
29423;BMP180;16399;51.686;8.684;2023-08-24T05:10:04;100100.00;;;17.30
29423;BMP180;16399;51.686;8.684;2023-08-24T05:13:06;100085.00;;;17.40
29423;BMP180;16399;51.686;8.684;2023-08-24T05:16:10;100098.00;;;17.40
29423;BMP180;16399;51.686;8.684;2023-08-24T05:19:12;100085.00;;;17.40
29423;BMP180;16399;51.686;8.684;2023-08-24T05:22:15;100073.00;;;17.40
29423;BMP180;16399;51.686;8.684;2023-08-24T05:25:17;100062.00;;;17.30
29423;BMP180;16399;51.686;8.684;2023-08-24T05:28:19;100062.00;;;17.40
29423;BMP180;16399;51.686;8.684;2023-08-24T05:31:21;100069.00;;;17.40
29423;BMP180;16399;51.686;8.684;2023-08-24T05:34:24;100068.00;;;17.40
29423;BMP180;16399;51.686;8.684;2023-08-24T05:37:26;100062.00;;;17.40
29423;BMP180;16399;51.686;8.684;2023-08-24T05:40:28;100068.00;;;17.40
29423;BMP180;16399;51.686;8.684;2023-08-24T05:43:31;100067.00;;;17.40
29423;BMP180;16399;51.686;8.684;2023-08-24T05:46:33;100079.00;;;17.40
29423;BMP180;16399;51.686;8.684;2023-08-24T05:49:35;100081.00;;;17.40
29423;BMP180;16399;51.686;8.684;2023-08-24T05:52:38;100082.00;;;17.40
29423;BMP180;16399;51.686;8.684;2023-08-24T05:55:40;100065.00;;;17.40
29423;BMP180;16399;51.686;8.684;2023-08-24T05:58:42;100079.00;;;17.50
29423;BMP180;16399;51.686;8.684;2023-08-24T06:01:44;100078.00;;;17.50
29423;BMP180;16399;51.686;8.684;2023-08-24T06:04:47;100074.00;;;17.50
29423;BMP180;16399;51.686;8.684;2023-08-24T06:07:51;100066.00;;;17.50
29423;BMP180;16399;51.686;8.684;2023-08-24T06:10:53;100066.00;;;17.50
29423;BMP180;16399;51.686;8.684;2023-08-24T06:13:56;100070.00;;;17.50
29423;BMP180;16399;51.686;8.684;2023-08-24T06:16:58;100058.00;;;17.60
29423;BMP180;16399;51.686;8.684;2023-08-24T06:20:01;100047.00;;;17.60
29423;BMP180;16399;51.686;8.684;2023-08-24T06:23:03;100042.00;;;17.60
29423;BMP180;16399;51.686;8.684;2023-08-24T06:26:06;100019.00;;;17.60
29423;BMP180;16399;51.686;8.684;2023-08-24T06:29:08;99993.00;;;17.60
29423;BMP180;16399;51.686;8.684;2023-08-24T06:32:10;99985.00;;;17.60
29423;BMP180;16399;51.686;8.684;2023-08-24T06:35:13;99984.00;;;17.60
29423;BMP180;16399;51.686;8.684;2023-08-24T06:38:16;99971.00;;;17.60
29423;BMP180;16399;51.686;8.684;2023-08-24T06:41:20;99966.00;;;17.60
29423;BMP180;16399;51.686;8.684;2023-08-24T06:44:22;99958.00;;;17.70
29423;BMP180;16399;51.686;8.684;2023-08-24T06:47:24;99950.00;;;17.80
29423;BMP180;16399;51.686;8.684;2023-08-24T06:50:26;99937.00;;;17.80
29423;BMP180;16399;51.686;8.684;2023-08-24T06:53:29;99936.00;;;17.90
29423;BMP180;16399;51.686;8.684;2023-08-24T06:56:31;99919.00;;;18.00
29423;BMP180;16399;51.686;8.684;2023-08-24T06:59:34;99930.00;;;18.10
29423;BMP180;16399;51.686;8.684;2023-08-24T07:02:36;99927.00;;;18.20
29423;BMP180;16399;51.686;8.684;2023-08-24T07:05:39;99921.00;;;18.30
29423;BMP180;16399;51.686;8.684;2023-08-24T07:08:41;99906.00;;;18.40
29423;BMP180;16399;51.686;8.684;2023-08-24T07:11:43;99896.00;;;18.50
29423;BMP180;16399;51.686;8.684;2023-08-24T07:14:46;99908.00;;;18.70
29423;BMP180;16399;51.686;8.684;2023-08-24T07:17:48;99920.00;;;18.80
29423;BMP180;16399;51.686;8.684;2023-08-24T07:20:50;99911.00;;;18.90
29423;BMP180;16399;51.686;8.684;2023-08-24T07:23:52;99894.00;;;19.10
29423;BMP180;16399;51.686;8.684;2023-08-24T07:26:55;99882.00;;;19.20
29423;BMP180;16399;51.686;8.684;2023-08-24T07:29:57;99873.00;;;19.30
29423;BMP180;16399;51.686;8.684;2023-08-24T07:33:01;99879.00;;;19.40
29423;BMP180;16399;51.686;8.684;2023-08-24T07:36:04;99887.00;;;19.50
29423;BMP180;16399;51.686;8.684;2023-08-24T07:39:07;99886.00;;;19.60
29423;BMP180;16399;51.686;8.684;2023-08-24T07:42:09;99887.00;;;19.70
29423;BMP180;16399;51.686;8.684;2023-08-24T07:45:12;99886.00;;;19.80
29423;BMP180;16399;51.686;8.684;2023-08-24T07:48:15;99895.00;;;19.90
29423;BMP180;16399;51.686;8.684;2023-08-24T07:51:17;99898.00;;;19.90
29423;BMP180;16399;51.686;8.684;2023-08-24T07:54:19;99896.00;;;20.00
29423;BMP180;16399;51.686;8.684;2023-08-24T07:57:22;99889.00;;;20.20
29423;BMP180;16399;51.686;8.684;2023-08-24T08:00:25;99900.00;;;20.40
29423;BMP180;16399;51.686;8.684;2023-08-24T08:03:27;99904.00;;;20.70
29423;BMP180;16399;51.686;8.684;2023-08-24T08:06:31;99901.00;;;20.90
29423;BMP180;16399;51.686;8.684;2023-08-24T08:09:35;99897.00;;;21.20
29423;BMP180;16399;51.686;8.684;2023-08-24T08:12:38;99920.00;;;21.40
29423;BMP180;16399;51.686;8.684;2023-08-24T08:15:40;99914.00;;;21.60
29423;BMP180;16399;51.686;8.684;2023-08-24T08:18:42;99915.00;;;21.80
29423;BMP180;16399;51.686;8.684;2023-08-24T08:21:44;99917.00;;;22.00
29423;BMP180;16399;51.686;8.684;2023-08-24T08:24:47;99912.00;;;22.20
29423;BMP180;16399;51.686;8.684;2023-08-24T08:27:50;99906.00;;;22.40
29423;BMP180;16399;51.686;8.684;2023-08-24T08:30:52;99908.00;;;22.60
29423;BMP180;16399;51.686;8.684;2023-08-24T08:33:54;99902.00;;;22.80
29423;BMP180;16399;51.686;8.684;2023-08-24T08:36:56;99894.00;;;23.00
29423;BMP180;16399;51.686;8.684;2023-08-24T08:39:59;99913.00;;;23.30
29423;BMP180;16399;51.686;8.684;2023-08-24T08:43:01;99900.00;;;23.60
29423;BMP180;16399;51.686;8.684;2023-08-24T08:46:03;99903.00;;;23.90
29423;BMP180;16399;51.686;8.684;2023-08-24T08:49:07;99897.00;;;24.20
29423;BMP180;16399;51.686;8.684;2023-08-24T08:52:10;99897.00;;;24.50
29423;BMP180;16399;51.686;8.684;2023-08-24T08:55:13;99889.00;;;24.80
29423;BMP180;16399;51.686;8.684;2023-08-24T08:58:17;99877.00;;;25.00
29423;BMP180;16399;51.686;8.684;2023-08-24T09:01:20;99865.00;;;25.10
29423;BMP180;16399;51.686;8.684;2023-08-24T09:04:28;99874.00;;;25.30
29423;BMP180;16399;51.686;8.684;2023-08-24T09:07:27;99869.00;;;25.50
29423;BMP180;16399;51.686;8.684;2023-08-24T09:10:29;99872.00;;;25.70
29423;BMP180;16399;51.686;8.684;2023-08-24T09:13:32;99852.00;;;25.90
29423;BMP180;16399;51.686;8.684;2023-08-24T09:16:35;99851.00;;;26.00
29423;BMP180;16399;51.686;8.684;2023-08-24T09:19:38;99851.00;;;26.10
29423;BMP180;16399;51.686;8.684;2023-08-24T09:22:40;99852.00;;;26.20
29423;BMP180;16399;51.686;8.684;2023-08-24T09:25:47;99849.00;;;26.30
29423;BMP180;16399;51.686;8.684;2023-08-24T09:28:50;99835.00;;;26.40
29423;BMP180;16399;51.686;8.684;2023-08-24T09:31:52;99824.00;;;26.60
29423;BMP180;16399;51.686;8.684;2023-08-24T09:34:55;99826.00;;;26.70
29423;BMP180;16399;51.686;8.684;2023-08-24T09:37:57;99817.00;;;26.80
29423;BMP180;16399;51.686;8.684;2023-08-24T09:41:01;99811.00;;;26.90
29423;BMP180;16399;51.686;8.684;2023-08-24T09:44:05;99805.00;;;27.10
29423;BMP180;16399;51.686;8.684;2023-08-24T09:47:10;99801.00;;;27.20
29423;BMP180;16399;51.686;8.684;2023-08-24T09:50:12;99796.00;;;27.40
29423;BMP180;16399;51.686;8.684;2023-08-24T09:53:20;99786.00;;;27.50
29423;BMP180;16399;51.686;8.684;2023-08-24T09:56:28;99784.00;;;27.60
29423;BMP180;16399;51.686;8.684;2023-08-24T09:59:31;99772.00;;;27.70
29423;BMP180;16399;51.686;8.684;2023-08-24T10:02:47;99779.00;;;27.70
29423;BMP180;16399;51.686;8.684;2023-08-24T10:05:52;99777.00;;;27.70
29423;BMP180;16399;51.686;8.684;2023-08-24T10:09:01;99780.00;;;27.60
29423;BMP180;16399;51.686;8.684;2023-08-24T10:12:07;99773.00;;;27.60
29423;BMP180;16399;51.686;8.684;2023-08-24T10:15:10;99765.00;;;27.70
29423;BMP180;16399;51.686;8.684;2023-08-24T10:18:18;99765.00;;;27.80
29423;BMP180;16399;51.686;8.684;2023-08-24T10:21:20;99752.00;;;27.90
29423;BMP180;16399;51.686;8.684;2023-08-24T10:24:26;99750.00;;;27.90
29423;BMP180;16399;51.686;8.684;2023-08-24T10:27:30;99757.00;;;27.90
29423;BMP180;16399;51.686;8.684;2023-08-24T10:30:35;99749.00;;;27.70
29423;BMP180;16399;51.686;8.684;2023-08-24T10:33:39;99754.00;;;27.80
29423;BMP180;16399;51.686;8.684;2023-08-24T10:36:42;99762.00;;;27.70
29423;BMP180;16399;51.686;8.684;2023-08-24T10:39:47;99762.00;;;27.70
29423;BMP180;16399;51.686;8.684;2023-08-24T10:42:49;99759.00;;;27.70
29423;BMP180;16399;51.686;8.684;2023-08-24T10:45:57;99750.00;;;27.70
29423;BMP180;16399;51.686;8.684;2023-08-24T10:48:59;99755.00;;;27.70
29423;BMP180;16399;51.686;8.684;2023-08-24T10:52:19;99757.00;;;27.60
29423;BMP180;16399;51.686;8.684;2023-08-24T10:55:25;99766.00;;;27.60
29423;BMP180;16399;51.686;8.684;2023-08-24T10:58:27;99778.00;;;27.70
29423;BMP180;16399;51.686;8.684;2023-08-24T11:01:32;99768.00;;;27.70
29423;BMP180;16399;51.686;8.684;2023-08-24T11:04:35;99770.00;;;27.70
29423;BMP180;16399;51.686;8.684;2023-08-24T11:07:53;99765.00;;;27.70
29423;BMP180;16399;51.686;8.684;2023-08-24T11:10:55;99763.00;;;27.80
29423;BMP180;16399;51.686;8.684;2023-08-24T11:14:16;99748.00;;;27.80
29423;BMP180;16399;51.686;8.684;2023-08-24T11:17:21;99754.00;;;27.80
29423;BMP180;16399;51.686;8.684;2023-08-24T11:20:24;99752.00;;;27.80
29423;BMP180;16399;51.686;8.684;2023-08-24T11:23:27;99744.00;;;27.80
29423;BMP180;16399;51.686;8.684;2023-08-24T11:26:30;99734.00;;;27.90
29423;BMP180;16399;51.686;8.684;2023-08-24T11:29:32;99733.00;;;27.90
29423;BMP180;16399;51.686;8.684;2023-08-24T11:32:35;99723.00;;;27.90
29423;BMP180;16399;51.686;8.684;2023-08-24T11:35:37;99713.00;;;28.00
29423;BMP180;16399;51.686;8.684;2023-08-24T11:38:42;99700.00;;;28.00
29423;BMP180;16399;51.686;8.684;2023-08-24T11:41:44;99701.00;;;28.00
29423;BMP180;16399;51.686;8.684;2023-08-24T11:44:48;99694.00;;;28.00
29423;BMP180;16399;51.686;8.684;2023-08-24T11:47:51;99679.00;;;28.00
29423;BMP180;16399;51.686;8.684;2023-08-24T11:50:55;99669.00;;;28.00
29423;BMP180;16399;51.686;8.684;2023-08-24T11:53:57;99673.00;;;28.00
29423;BMP180;16399;51.686;8.684;2023-08-24T11:56:59;99674.00;;;28.10
29423;BMP180;16399;51.686;8.684;2023-08-24T12:00:03;99678.00;;;28.00
29423;BMP180;16399;51.686;8.684;2023-08-24T12:03:05;99681.00;;;28.00
29423;BMP180;16399;51.686;8.684;2023-08-24T12:06:16;99683.00;;;28.10
29423;BMP180;16399;51.686;8.684;2023-08-24T12:09:15;99667.00;;;28.20
29423;BMP180;16399;51.686;8.684;2023-08-24T12:12:18;99664.00;;;28.20
29423;BMP180;16399;51.686;8.684;2023-08-24T12:15:22;99664.00;;;28.30
29423;BMP180;16399;51.686;8.684;2023-08-24T12:18:24;99664.00;;;28.30
29423;BMP180;16399;51.686;8.684;2023-08-24T12:21:26;99657.00;;;28.40
29423;BMP180;16399;51.686;8.684;2023-08-24T12:24:30;99655.00;;;28.40
29423;BMP180;16399;51.686;8.684;2023-08-24T12:27:32;99641.00;;;28.50
29423;BMP180;16399;51.686;8.684;2023-08-24T12:30:48;99645.00;;;28.50
29423;BMP180;16399;51.686;8.684;2023-08-24T12:37:04;99644.00;;;28.50
29423;BMP180;16399;51.686;8.684;2023-08-24T12:40:07;99633.00;;;28.40
29423;BMP180;16399;51.686;8.684;2023-08-24T12:43:10;99627.00;;;28.40
29423;BMP180;16399;51.686;8.684;2023-08-24T12:46:12;99625.00;;;28.30
29423;BMP180;16399;51.686;8.684;2023-08-24T12:49:15;99625.00;;;28.30
29423;BMP180;16399;51.686;8.684;2023-08-24T12:52:17;99620.00;;;28.30
29423;BMP180;16399;51.686;8.684;2023-08-24T12:55:19;99623.00;;;28.20
29423;BMP180;16399;51.686;8.684;2023-08-24T12:58:21;99615.00;;;28.20
29423;BMP180;16399;51.686;8.684;2023-08-24T13:01:24;99614.00;;;28.20
29423;BMP180;16399;51.686;8.684;2023-08-24T13:04:26;99619.00;;;28.20
29423;BMP180;16399;51.686;8.684;2023-08-24T13:07:30;99611.00;;;28.30
29423;BMP180;16399;51.686;8.684;2023-08-24T13:10:33;99607.00;;;28.40
29423;BMP180;16399;51.686;8.684;2023-08-24T13:13:35;99609.00;;;28.40
29423;BMP180;16399;51.686;8.684;2023-08-24T13:16:37;99604.00;;;28.40
29423;BMP180;16399;51.686;8.684;2023-08-24T13:19:40;99593.00;;;28.40
29423;BMP180;16399;51.686;8.684;2023-08-24T13:22:42;99591.00;;;28.30
29423;BMP180;16399;51.686;8.684;2023-08-24T13:25:44;99585.00;;;28.30
29423;BMP180;16399;51.686;8.684;2023-08-24T13:28:47;99580.00;;;28.30
29423;BMP180;16399;51.686;8.684;2023-08-24T13:31:49;99573.00;;;28.20
29423;BMP180;16399;51.686;8.684;2023-08-24T13:34:52;99566.00;;;28.20
29423;BMP180;16399;51.686;8.684;2023-08-24T13:37:54;99560.00;;;28.20
29423;BMP180;16399;51.686;8.684;2023-08-24T13:40:56;99555.00;;;28.20
29423;BMP180;16399;51.686;8.684;2023-08-24T13:43:59;99567.00;;;28.20
29423;BMP180;16399;51.686;8.684;2023-08-24T13:47:01;99564.00;;;28.20
29423;BMP180;16399;51.686;8.684;2023-08-24T13:50:03;99563.00;;;28.20
29423;BMP180;16399;51.686;8.684;2023-08-24T13:53:06;99553.00;;;28.20
29423;BMP180;16399;51.686;8.684;2023-08-24T13:56:08;99552.00;;;28.20
29423;BMP180;16399;51.686;8.684;2023-08-24T13:59:11;99551.00;;;28.20
29423;BMP180;16399;51.686;8.684;2023-08-24T14:02:13;99551.00;;;28.20
29423;BMP180;16399;51.686;8.684;2023-08-24T14:05:15;99547.00;;;28.20
29423;BMP180;16399;51.686;8.684;2023-08-24T14:08:18;99551.00;;;28.30
29423;BMP180;16399;51.686;8.684;2023-08-24T14:11:20;99535.00;;;28.30
29423;BMP180;16399;51.686;8.684;2023-08-24T14:14:22;99539.00;;;28.30
29423;BMP180;16399;51.686;8.684;2023-08-24T14:17:25;99545.00;;;28.20
29423;BMP180;16399;51.686;8.684;2023-08-24T14:20:27;99540.00;;;28.20
29423;BMP180;16399;51.686;8.684;2023-08-24T14:23:29;99547.00;;;28.10
29423;BMP180;16399;51.686;8.684;2023-08-24T14:26:31;99553.00;;;28.00
29423;BMP180;16399;51.686;8.684;2023-08-24T14:29:34;99560.00;;;28.00
29423;BMP180;16399;51.686;8.684;2023-08-24T14:32:36;99554.00;;;27.90
29423;BMP180;16399;51.686;8.684;2023-08-24T14:35:38;99561.00;;;27.80
29423;BMP180;16399;51.686;8.684;2023-08-24T14:38:41;99567.00;;;27.70
29423;BMP180;16399;51.686;8.684;2023-08-24T14:41:43;99553.00;;;27.60
29423;BMP180;16399;51.686;8.684;2023-08-24T14:44:46;99568.00;;;27.50
29423;BMP180;16399;51.686;8.684;2023-08-24T14:47:48;99557.00;;;27.40
29423;BMP180;16399;51.686;8.684;2023-08-24T14:50:50;99549.00;;;27.30
29423;BMP180;16399;51.686;8.684;2023-08-24T14:53:53;99547.00;;;27.20
29423;BMP180;16399;51.686;8.684;2023-08-24T14:56:55;99537.00;;;27.10
29423;BMP180;16399;51.686;8.684;2023-08-24T14:59:58;99545.00;;;27.00
29423;BMP180;16399;51.686;8.684;2023-08-24T15:03:00;99510.00;;;26.90
29423;BMP180;16399;51.686;8.684;2023-08-24T15:06:04;99509.00;;;26.80
29423;BMP180;16399;51.686;8.684;2023-08-24T15:09:08;99513.00;;;26.70
29423;BMP180;16399;51.686;8.684;2023-08-24T15:12:11;99511.00;;;26.70
29423;BMP180;16399;51.686;8.684;2023-08-24T15:15:13;99512.00;;;26.60
29423;BMP180;16399;51.686;8.684;2023-08-24T15:18:16;99493.00;;;26.60
29423;BMP180;16399;51.686;8.684;2023-08-24T15:21:19;99489.00;;;26.50
29423;BMP180;16399;51.686;8.684;2023-08-24T15:24:21;99475.00;;;26.50
29423;BMP180;16399;51.686;8.684;2023-08-24T15:27:28;99468.00;;;26.50
29423;BMP180;16399;51.686;8.684;2023-08-24T15:30:27;99470.00;;;26.50
29423;BMP180;16399;51.686;8.684;2023-08-24T15:33:29;99476.00;;;26.50
29423;BMP180;16399;51.686;8.684;2023-08-24T15:36:32;99482.00;;;26.40
29423;BMP180;16399;51.686;8.684;2023-08-24T15:39:39;99488.00;;;26.40
29423;BMP180;16399;51.686;8.684;2023-08-24T15:42:41;99484.00;;;26.40
29423;BMP180;16399;51.686;8.684;2023-08-24T15:45:44;99485.00;;;26.40
29423;BMP180;16399;51.686;8.684;2023-08-24T15:48:47;99508.00;;;26.30
29423;BMP180;16399;51.686;8.684;2023-08-24T15:51:50;99515.00;;;26.30
29423;BMP180;16399;51.686;8.684;2023-08-24T15:54:52;99520.00;;;26.30
29423;BMP180;16399;51.686;8.684;2023-08-24T15:57:54;99518.00;;;26.30
29423;BMP180;16399;51.686;8.684;2023-08-24T16:00:57;99519.00;;;26.30
29423;BMP180;16399;51.686;8.684;2023-08-24T16:03:59;99517.00;;;26.20
29423;BMP180;16399;51.686;8.684;2023-08-24T16:07:01;99509.00;;;26.20
29423;BMP180;16399;51.686;8.684;2023-08-24T16:10:04;99514.00;;;26.20
29423;BMP180;16399;51.686;8.684;2023-08-24T16:13:08;99514.00;;;26.10
29423;BMP180;16399;51.686;8.684;2023-08-24T16:16:10;99512.00;;;26.10
29423;BMP180;16399;51.686;8.684;2023-08-24T16:19:12;99518.00;;;26.10
29423;BMP180;16399;51.686;8.684;2023-08-24T16:22:14;99512.00;;;26.10
29423;BMP180;16399;51.686;8.684;2023-08-24T16:25:17;99517.00;;;26.00
29423;BMP180;16399;51.686;8.684;2023-08-24T16:28:19;99512.00;;;26.00
29423;BMP180;16399;51.686;8.684;2023-08-24T16:31:21;99514.00;;;25.90
29423;BMP180;16399;51.686;8.684;2023-08-24T16:34:24;99511.00;;;25.90
29423;BMP180;16399;51.686;8.684;2023-08-24T16:37:26;99508.00;;;25.90
29423;BMP180;16399;51.686;8.684;2023-08-24T16:40:28;99513.00;;;25.80
29423;BMP180;16399;51.686;8.684;2023-08-24T16:43:30;99515.00;;;25.80
29423;BMP180;16399;51.686;8.684;2023-08-24T16:46:33;99504.00;;;25.80
29423;BMP180;16399;51.686;8.684;2023-08-24T16:49:36;99509.00;;;25.80
29423;BMP180;16399;51.686;8.684;2023-08-24T16:52:38;99495.00;;;25.80
29423;BMP180;16399;51.686;8.684;2023-08-24T16:55:40;99493.00;;;25.70
29423;BMP180;16399;51.686;8.684;2023-08-24T16:58:43;99501.00;;;25.70
29423;BMP180;16399;51.686;8.684;2023-08-24T17:01:45;99490.00;;;25.70
29423;BMP180;16399;51.686;8.684;2023-08-24T17:04:47;99490.00;;;25.70
29423;BMP180;16399;51.686;8.684;2023-08-24T17:11:07;99480.00;;;25.60
29423;BMP180;16399;51.686;8.684;2023-08-24T17:14:09;99473.00;;;25.50
29423;BMP180;16399;51.686;8.684;2023-08-24T17:17:11;99468.00;;;25.50
29423;BMP180;16399;51.686;8.684;2023-08-24T17:20:14;99463.00;;;25.40
29423;BMP180;16399;51.686;8.684;2023-08-24T17:23:16;99453.00;;;25.40
29423;BMP180;16399;51.686;8.684;2023-08-24T17:26:18;99452.00;;;25.40
29423;BMP180;16399;51.686;8.684;2023-08-24T17:29:20;99443.00;;;25.30
29423;BMP180;16399;51.686;8.684;2023-08-24T17:32:23;99438.00;;;25.20
29423;BMP180;16399;51.686;8.684;2023-08-24T17:35:29;99439.00;;;25.20
29423;BMP180;16399;51.686;8.684;2023-08-24T17:38:31;99442.00;;;25.10